Time;durP1;ratioP1;P1;durP2;ratioP2;P2;SDS_P1;SDS_P2;PMS_P1;PMS_P2;Temp;Humidity;BMP_temperature;BMP_pressure;BME280_temperature;BME280_humidity;BME280_pressure;Samples;Min_cycle;Max_cycle;Signal;HPM_P1;HPM_P2
2022/09/06 00:00:33;;;;;;;14.23;13.20;;;;;;;13.74;95.32;93497.13;5070487;28;20273;-69
2022/09/06 00:02:59;;;;;;;12.80;11.50;;;;;;;13.64;95.14;93497.97;5070950;28;20193;-69
2022/09/06 00:05:29;;;;;;;13.80;12.90;;;;;;;13.70;95.00;93504.75;5071063;28;20230;-69
2022/09/06 00:07:58;;;;;;;13.43;12.53;;;;;;;13.83;94.95;93506.75;5070762;28;20190;-68
2022/09/06 00:10:24;;;;;;;12.17;11.37;;;;;;;13.70;95.37;93504.75;5070246;28;20233;-70
2022/09/06 00:12:50;;;;;;;12.83;11.90;;;;;;;13.70;95.59;93507.38;5082381;28;20185;-69
2022/09/06 00:15:15;;;;;;;12.73;11.63;;;;;;;13.70;95.21;93503.97;5090529;28;20220;-69
2022/09/06 00:17:40;;;;;;;12.73;11.83;;;;;;;13.51;95.18;93482.88;5073118;28;20303;-69
2022/09/06 00:20:09;;;;;;;13.70;12.60;;;;;;;13.67;94.61;93504.50;5071153;28;20281;-69
2022/09/06 00:22:35;;;;;;;13.30;12.20;;;;;;;13.65;94.74;93512.66;5073757;28;20221;-70
2022/09/06 00:25:03;;;;;;;13.13;12.23;;;;;;;13.42;95.83;93489.75;5070292;28;20218;-68
2022/09/06 00:27:28;;;;;;;12.23;11.40;;;;;;;13.67;94.97;93494.03;5086772;28;20191;-69
2022/09/06 00:29:54;;;;;;;13.87;12.87;;;;;;;13.47;95.80;93487.09;5089777;28;20217;-69
2022/09/06 00:32:19;;;;;;;12.23;11.33;;;;;;;13.55;96.23;93499.63;5075748;28;20193;-69
2022/09/06 00:34:44;;;;;;;13.50;12.50;;;;;;;13.36;95.29;93451.50;5088059;28;20235;-69
2022/09/06 00:37:10;;;;;;;13.63;12.63;;;;;;;13.49;96.14;93477.13;5077026;28;20193;-70
2022/09/06 00:39:35;;;;;;;11.37;10.63;;;;;;;13.62;95.74;93488.84;5070040;28;20248;-69
2022/09/06 00:42:00;;;;;;;14.20;13.07;;;;;;;13.61;96.06;93503.78;5070417;28;20255;-69
2022/09/06 00:44:26;;;;;;;12.47;11.57;;;;;;;13.47;96.72;93492.34;5080271;28;20221;-69
2022/09/06 00:46:53;;;;;;;12.13;11.33;;;;;;;13.57;96.33;93491.50;5089643;28;20176;-69
2022/09/06 00:49:28;;;;;;;11.63;10.83;;;;;;;13.56;96.51;93489.91;5089788;28;20329;-69
2022/09/06 00:51:57;;;;;;;13.00;12.20;;;;;;;13.62;96.33;93492.22;5078385;28;20196;-69
2022/09/06 00:54:24;;;;;;;13.13;12.30;;;;;;;13.30;96.89;93494.56;5069808;28;20220;-68
2022/09/06 00:56:50;;;;;;;12.70;11.57;;;;;;;13.46;96.48;93498.66;5080809;28;20185;-69
2022/09/06 00:59:16;;;;;;;12.43;11.63;;;;;;;13.48;95.95;93496.53;5089311;28;20242;-71
2022/09/06 01:01:42;;;;;;;11.57;10.87;;;;;;;13.32;96.34;93491.69;5080474;28;20221;-69
2022/09/06 01:04:07;;;;;;;13.17;12.07;;;;;;;13.31;96.72;93496.13;5069490;28;20229;-70
2022/09/06 01:07:18;;;;;;;12.20;11.40;;;;;;;13.21;97.15;93495.44;5068808;28;20181;-69
2022/09/06 01:10:14;;;;;;;13.03;12.23;;;;;;;13.15;96.75;93478.16;5064370;28;20241;-69
2022/09/06 01:13:01;;;;;;;12.77;11.70;;;;;;;13.39;95.71;93498.19;5069725;28;20185;-69
2022/09/06 01:15:40;;;;;;;13.13;12.23;;;;;;;13.37;95.35;93497.66;5069251;28;20236;-69
2022/09/06 01:18:42;;;;;;;11.90;11.17;;;;;;;13.28;95.55;93494.06;5084581;28;20206;-71
2022/09/06 01:21:23;;;;;;;12.87;11.87;;;;;;;13.22;95.66;93496.97;5085053;28;20213;-69
2022/09/06 01:24:03;;;;;;;12.40;11.60;;;;;;;13.18;95.99;93502.00;5069065;28;20297;-68
2022/09/06 01:26:50;;;;;;;14.03;13.03;;;;;;;13.31;95.89;93498.75;5072421;28;20203;-69
2022/09/06 01:29:22;;;;;;;13.03;12.03;;;;;;;13.12;96.34;93500.44;5094486;28;20216;-70
2022/09/06 01:31:54;;;;;;;11.93;11.13;;;;;;;13.31;95.82;93496.13;5097835;28;20191;-70
2022/09/06 01:34:43;;;;;;;12.57;11.77;;;;;;;13.36;95.06;93484.81;5092212;28;20259;-68
2022/09/06 01:37:15;;;;;;;12.47;11.67;;;;;;;13.84;93.08;93491.78;5093331;28;20184;-68
2022/09/06 01:39:40;;;;;;;11.17;10.40;;;;;;;13.62;94.14;93491.47;5089311;28;20220;-72
2022/09/06 01:42:10;;;;;;;13.30;12.43;;;;;;;13.43;93.96;93488.69;5101361;28;20212;-68
2022/09/06 01:44:39;;;;;;;10.83;10.13;;;;;;;13.13;95.77;93462.69;5079225;28;20224;-70
2022/09/06 01:47:23;;;;;;;13.00;12.13;;;;;;;13.02;96.20;93476.94;5084979;28;20173;-68
2022/09/06 01:50:03;;;;;;;11.93;11.13;;;;;;;12.96;96.83;93480.63;5082311;28;20220;-68
2022/09/06 01:52:55;;;;;;;12.53;11.63;;;;;;;12.97;95.94;93463.81;5090625;28;20187;-69
2022/09/06 01:55:50;;;;;;;12.03;11.30;;;;;;;12.83;97.04;93465.47;5090843;28;20244;-69
2022/09/06 01:58:51;;;;;;;11.70;11.00;;;;;;;12.95;96.42;93466.72;5098252;28;20188;-69
2022/09/06 02:01:33;;;;;;;11.53;10.67;;;;;;;12.88;96.24;93453.13;5019501;28;20225;-70
2022/09/06 02:04:10;;;;;;;12.57;11.60;;;;;;;12.98;96.15;93468.00;5087037;28;20247;-69
2022/09/06 02:06:48;;;;;;;12.27;11.47;;;;;;;12.89;95.57;93440.81;5082460;28;20232;-70
2022/09/06 02:09:22;;;;;;;11.20;10.30;;;;;;;12.92;96.42;93454.16;5087569;28;20213;-70
2022/09/06 02:11:51;;;;;;;12.47;11.67;;;;;;;12.85;96.88;93455.50;5086923;28;20220;-70
2022/09/06 02:14:23;;;;;;;11.47;10.77;;;;;;;12.96;96.21;93462.25;5087810;28;20228;-69
2022/09/06 02:16:51;;;;;;;11.43;10.57;;;;;;;12.82;96.57;93456.06;5088177;28;20208;-69
2022/09/06 02:19:23;;;;;;;11.27;10.57;;;;;;;12.86;96.36;93459.69;5088746;28;20237;-69
2022/09/06 02:21:51;;;;;;;11.33;10.63;;;;;;;12.82;96.44;93461.28;5086069;28;20209;-71
2022/09/06 02:24:21;;;;;;;11.63;10.63;;;;;;;12.77;96.69;93453.47;5083372;28;20227;-71
2022/09/06 02:26:48;;;;;;;13.00;11.90;;;;;;;12.76;96.71;93462.38;5083452;28;20200;-71
2022/09/06 02:29:15;;;;;;;11.70;11.00;;;;;;;12.52;97.17;93427.38;5085441;28;20217;-71
2022/09/06 02:31:49;;;;;;;10.53;9.83;;;;;;;12.53;98.47;93449.91;5089952;28;20185;-71
2022/09/06 02:34:18;;;;;;;12.87;11.90;;;;;;;12.59;99.13;93456.72;5090810;28;20251;-71
2022/09/06 02:36:44;;;;;;;11.57;10.83;;;;;;;12.71;98.21;93454.53;5086652;28;20851;-70
2022/09/06 02:39:11;;;;;;;12.50;11.70;;;;;;;12.76;98.18;93462.38;5090074;28;20246;-71
2022/09/06 02:41:38;;;;;;;13.37;12.47;;;;;;;12.58;98.08;93455.13;5089941;28;20236;-71
2022/09/06 02:44:04;;;;;;;12.87;11.97;;;;;;;12.47;98.50;93454.41;5088075;28;20228;-70
2022/09/06 02:46:29;;;;;;;12.80;11.50;;;;;;;12.51;98.58;93455.41;5087545;28;20195;-71
2022/09/06 02:48:54;;;;;;;12.23;11.07;;;;;;;12.54;98.84;93467.19;5091289;28;20224;-71
2022/09/06 02:51:20;;;;;;;11.73;11.03;;;;;;;12.53;99.04;93470.84;5088260;28;20212;-70
2022/09/06 02:53:46;;;;;;;13.20;12.30;;;;;;;12.44;99.24;93464.63;5090577;28;20190;-71
2022/09/06 02:56:11;;;;;;;11.73;10.93;;;;;;;12.64;98.97;93480.25;5088145;28;20204;-71
2022/09/06 02:58:37;;;;;;;12.53;11.73;;;;;;;12.61;98.75;93475.53;5080272;28;20192;-68
2022/09/06 03:01:03;;;;;;;13.07;12.17;;;;;;;12.55;99.10;93474.00;5078067;28;20201;-68
2022/09/06 03:03:28;;;;;;;12.40;11.50;;;;;;;12.48;99.46;93471.66;5075067;28;20197;-68
2022/09/06 03:05:53;;;;;;;12.47;11.47;;;;;;;12.52;99.60;93479.78;5091418;28;20219;-69
2022/09/06 03:08:21;;;;;;;11.80;11.00;;;;;;;12.59;99.55;93477.66;5092183;28;20189;-68
2022/09/06 03:10:51;;;;;;;11.37;10.60;;;;;;;12.68;98.66;93478.66;5090175;28;20236;-68
2022/09/06 03:13:17;;;;;;;10.93;10.23;;;;;;;12.57;99.14;93471.91;5091159;28;20186;-69
2022/09/06 03:15:42;;;;;;;13.30;12.43;;;;;;;12.58;98.72;93470.84;5091414;28;20232;-68
2022/09/06 03:18:08;;;;;;;13.70;12.50;;;;;;;12.59;98.66;93467.94;5091201;28;20184;-68
2022/09/06 03:20:33;;;;;;;14.10;12.77;;;;;;;12.55;98.69;93466.13;5089213;28;20223;-68
2022/09/06 03:22:59;;;;;;;13.57;12.53;;;;;;;12.64;98.49;93467.13;5091744;28;20191;-68
2022/09/06 03:25:24;;;;;;;12.47;11.57;;;;;;;12.59;98.08;93469.81;5080766;28;20217;-67
2022/09/06 03:27:50;;;;;;;12.23;11.37;;;;;;;12.48;99.12;93471.66;5082039;28;20181;-68
2022/09/06 03:30:16;;;;;;;12.77;11.97;;;;;;;12.45;99.40;93474.06;5075708;28;20225;-68
2022/09/06 03:32:41;;;;;;;12.90;11.90;;;;;;;12.53;99.13;93476.09;5088242;28;20175;-69
2022/09/06 03:35:08;;;;;;;12.47;11.37;;;;;;;12.59;98.15;93481.03;5084821;28;20276;-69
2022/09/06 03:37:33;;;;;;;12.03;11.23;;;;;;;12.46;98.09;93467.75;5088593;28;20208;-69
2022/09/06 03:39:58;;;;;;;13.57;12.57;;;;;;;12.34;98.70;93472.53;5077647;28;20197;-69
2022/09/06 03:42:25;;;;;;;12.70;11.67;;;;;;;12.39;99.16;93488.22;5085300;28;20220;-69
2022/09/06 03:44:51;;;;;;;12.67;11.77;;;;;;;12.31;99.10;93480.91;5088798;28;20209;-68
2022/09/06 03:47:16;;;;;;;11.73;10.87;;;;;;;12.31;99.49;93483.53;5088526;28;20173;-69
2022/09/06 03:49:42;;;;;;;11.90;11.07;;;;;;;12.28;99.88;93491.94;5075374;28;20244;-68
2022/09/06 03:52:07;;;;;;;12.33;11.53;;;;;;;12.15;100.00;93471.53;5087836;28;20191;-70
2022/09/06 03:54:32;;;;;;;12.83;11.93;;;;;;;12.24;100.00;93501.34;5090801;28;20258;-69
2022/09/06 03:56:58;;;;;;;13.73;12.53;;;;;;;12.37;100.00;93495.56;5086419;28;20622;-69
2022/09/06 03:59:23;;;;;;;12.80;11.90;;;;;;;12.29;100.00;93494.28;5090871;28;20284;-69
2022/09/06 04:01:49;;;;;;;13.50;12.13;;;;;;;12.28;100.00;93484.84;5087171;28;20213;-70
2022/09/06 04:04:14;;;;;;;13.43;12.13;;;;;;;12.39;99.32;93496.09;5079625;28;20296;-68
2022/09/06 04:06:39;;;;;;;12.17;11.37;;;;;;;12.43;98.96;93491.88;5077105;28;20185;-69
2022/09/06 04:09:05;;;;;;;13.77;12.77;;;;;;;12.54;98.03;93494.19;5090688;28;20249;-69
2022/09/06 04:11:30;;;;;;;15.67;12.03;;;;;;;12.28;99.21;93481.47;5088104;28;20228;-69
2022/09/06 04:13:55;;;;;;;12.77;11.87;;;;;;;12.38;100.00;93497.13;5090626;28;20221;-70
2022/09/06 04:16:21;;;;;;;12.03;11.17;;;;;;;12.32;100.00;93500.81;5089769;28;20172;-69
2022/09/06 04:18:46;;;;;;;12.03;11.23;;;;;;;12.48;100.00;93495.22;5090463;28;20179;-69
2022/09/06 04:21:11;;;;;;;12.63;11.43;;;;;;;12.41;99.71;93492.13;5078702;28;20219;-69
2022/09/06 04:23:37;;;;;;;13.07;11.97;;;;;;;12.52;99.21;93495.50;5090317;28;20240;-69
2022/09/06 04:26:03;;;;;;;13.20;12.13;;;;;;;12.54;99.39;93496.03;5090505;28;20176;-68
2022/09/06 04:28:28;;;;;;;12.90;11.93;;;;;;;12.54;99.73;93496.03;5090468;28;20248;-73
2022/09/06 04:30:56;;;;;;;12.77;11.77;;;;;;;12.51;99.74;93493.94;5079843;28;20953;-69
2022/09/06 04:33:25;;;;;;;13.40;12.17;;;;;;;12.45;99.80;93446.00;5090971;28;20209;-69
2022/09/06 04:35:59;;;;;;;13.37;12.47;;;;;;;12.70;99.11;93487.81;5084648;28;20235;-69
2022/09/06 04:38:26;;;;;;;12.87;11.97;;;;;;;12.92;98.53;93503.94;5090634;28;20216;-69
2022/09/06 04:40:54;;;;;;;11.50;10.80;;;;;;;13.01;98.09;93501.59;5083142;28;20210;-69
2022/09/06 04:43:19;;;;;;;12.00;11.03;;;;;;;13.04;98.27;93493.19;5084514;28;21038;-69
2022/09/06 04:45:45;;;;;;;12.90;11.83;;;;;;;13.00;99.09;93500.00;5089907;28;20200;-69
2022/09/06 04:48:10;;;;;;;11.97;11.17;;;;;;;12.99;99.67;93498.41;5090491;28;20185;-69
2022/09/06 04:50:36;;;;;;;12.97;12.07;;;;;;;13.08;99.31;93491.56;5088440;28;20221;-69
2022/09/06 04:53:02;;;;;;;12.47;11.67;;;;;;;13.22;98.88;93487.28;5089877;28;20240;-69
2022/09/06 04:55:30;;;;;;;13.37;11.73;;;;;;;13.24;98.80;93495.66;5089542;28;20228;-69
2022/09/06 04:57:59;;;;;;;12.97;11.87;;;;;;;13.43;98.54;93491.31;5090793;28;20180;-69
2022/09/06 05:00:26;;;;;;;12.10;11.30;;;;;;;13.51;97.86;93488.13;5089443;28;20243;-68
2022/09/06 05:02:51;;;;;;;12.87;11.87;;;;;;;13.50;97.79;93478.69;5090047;28;20239;-69
2022/09/06 05:05:17;;;;;;;12.83;11.93;;;;;;;13.53;97.77;93472.09;5089812;28;20212;-69
2022/09/06 05:07:42;;;;;;;12.10;11.23;;;;;;;14.03;94.64;93493.44;5090477;28;20188;-68
2022/09/06 05:10:08;;;;;;;12.23;11.23;;;;;;;13.87;95.19;93492.00;5088553;28;20228;-69
2022/09/06 05:12:33;;;;;;;14.30;13.20;;;;;;;13.86;95.81;93490.44;5090221;28;20898;-69
2022/09/06 05:15:00;;;;;;;13.20;12.20;;;;;;;13.95;94.99;93488.00;5088745;28;20213;-69
2022/09/06 05:17:25;;;;;;;13.20;12.20;;;;;;;13.92;95.38;93481.47;5090443;28;20248;-69
2022/09/06 05:19:51;;;;;;;12.20;11.30;;;;;;;14.18;94.68;93503.00;5089079;28;20216;-69
2022/09/06 05:22:16;;;;;;;14.03;12.93;;;;;;;14.25;94.70;93498.22;5090295;28;20264;-68
2022/09/06 05:24:41;;;;;;;13.40;12.33;;;;;;;14.36;94.98;93497.84;5088709;28;20220;-71
2022/09/06 05:27:07;;;;;;;12.27;11.33;;;;;;;14.39;94.79;93496.50;5090531;28;20177;-69
2022/09/06 05:29:32;;;;;;;12.23;11.13;;;;;;;14.46;94.50;93489.06;5089571;28;20276;-69
2022/09/06 05:31:58;;;;;;;12.67;11.73;;;;;;;14.37;94.63;93478.41;5088160;28;20200;-69
2022/09/06 05:34:23;;;;;;;12.60;11.60;;;;;;;14.52;93.35;93489.78;5089515;28;20231;-69
2022/09/06 05:36:49;;;;;;;13.57;12.50;;;;;;;14.49;94.47;93494.53;5088717;28;20242;-70
2022/09/06 05:39:14;;;;;;;14.07;12.87;;;;;;;14.50;95.79;93492.72;5089542;28;20272;-69
2022/09/06 05:41:39;;;;;;;14.50;13.20;;;;;;;14.68;94.37;93484.06;5089897;28;20204;-69
2022/09/06 05:44:05;;;;;;;14.27;12.97;;;;;;;14.94;92.65;93501.09;5089374;28;20255;-69
2022/09/06 05:46:30;;;;;;;13.93;12.53;;;;;;;14.89;92.27;93500.38;5089696;28;20877;-70
2022/09/06 05:48:59;;;;;;;14.17;12.87;;;;;;;14.70;92.57;93489.03;5089336;28;20228;-69
2022/09/06 05:51:25;;;;;;;13.53;12.43;;;;;;;14.82;92.48;93494.69;5089606;28;20252;-68
2022/09/06 05:53:50;;;;;;;14.80;13.50;;;;;;;14.90;93.04;93502.72;5089112;28;20220;-71
2022/09/06 05:56:16;;;;;;;12.93;11.57;;;;;;;15.14;91.86;93497.41;5090079;28;20188;-68
2022/09/06 05:58:42;;;;;;;13.23;12.13;;;;;;;14.98;92.83;93496.84;5089210;28;20191;-69
2022/09/06 06:01:16;;;;;;;13.70;12.53;;;;;;;14.63;93.54;93499.13;5086856;28;20208;-69
2022/09/06 06:03:42;;;;;;;13.23;12.17;;;;;;;14.68;94.17;93489.31;5089458;28;20201;-70
2022/09/06 06:06:08;;;;;;;13.63;12.33;;;;;;;15.29;90.23;93497.19;5091388;28;20176;-71
2022/09/06 06:08:35;;;;;;;14.33;13.10;;;;;;;15.05;91.25;93489.38;5091000;28;20414;-70
2022/09/06 06:11:01;;;;;;;13.50;12.17;;;;;;;15.29;91.05;93486.66;5092923;28;20246;-69
2022/09/06 06:13:28;;;;;;;14.43;13.23;;;;;;;15.45;89.87;93477.50;5092050;28;20201;-69
2022/09/06 06:15:54;;;;;;;13.17;12.13;;;;;;;15.39;90.18;93474.16;5091706;28;20842;-69
2022/09/06 06:18:20;;;;;;;13.03;11.93;;;;;;;15.59;90.65;93483.63;5090906;28;20185;-70
2022/09/06 06:20:45;;;;;;;14.03;12.87;;;;;;;15.91;87.88;93483.59;5091719;28;20275;-68
2022/09/06 06:23:10;;;;;;;14.23;13.03;;;;;;;15.91;87.49;93478.34;5090323;28;20227;-67
2022/09/06 06:25:36;;;;;;;13.57;12.30;;;;;;;16.32;84.36;93479.19;5075069;28;20231;-69
2022/09/06 06:28:01;;;;;;;13.27;12.07;;;;;;;16.27;85.10;93481.13;5078335;28;20185;-69
2022/09/06 06:30:27;;;;;;;12.87;11.77;;;;;;;15.65;88.17;93483.25;5085543;28;20247;-69
2022/09/06 06:32:52;;;;;;;13.43;12.00;;;;;;;16.23;86.11;93474.88;5090600;28;20192;-69
2022/09/06 06:35:17;;;;;;;12.63;11.33;;;;;;;16.16;86.28;93480.53;5086552;28;20217;-69
2022/09/06 06:37:44;;;;;;;13.27;11.97;;;;;;;16.40;85.01;93478.50;5090505;28;20248;-69
2022/09/06 06:40:10;;;;;;;14.93;13.63;;;;;;;16.52;83.06;93484.09;5091699;28;20234;-69
2022/09/06 06:42:35;;;;;;;13.70;11.90;;;;;;;16.71;82.14;93479.50;5091040;28;20240;-68
2022/09/06 06:45:01;;;;;;;14.63;13.23;;;;;;;16.49;83.12;93482.06;5092146;28;20299;-70
2022/09/06 06:47:26;;;;;;;14.63;12.23;;;;;;;16.66;82.62;93460.38;5092889;28;20252;-71
2022/09/06 06:49:52;;;;;;;12.93;11.73;;;;;;;16.87;82.06;93480.75;5084597;28;20293;-70
2022/09/06 06:52:20;;;;;;;13.33;11.93;;;;;;;16.82;82.45;93459.78;5090023;28;20184;-70
2022/09/06 06:54:45;;;;;;;13.97;12.87;;;;;;;17.36;79.20;93486.03;5089170;28;20217;-71
2022/09/06 06:57:11;;;;;;;13.13;12.03;;;;;;;17.35;78.57;93487.09;5091497;28;20456;-72
2022/09/06 06:59:38;;;;;;;13.23;12.23;;;;;;;17.17;78.23;93474.84;5092454;28;20283;-70
2022/09/06 07:02:04;;;;;;;12.47;11.47;;;;;;;17.18;80.09;93488.81;5079944;28;20205;-71
2022/09/06 07:04:30;;;;;;;13.03;11.93;;;;;;;17.08;80.94;93495.09;5092476;28;20280;-71
2022/09/06 07:06:55;;;;;;;13.37;12.17;;;;;;;17.40;77.55;93479.06;5077828;28;20178;-69
2022/09/06 07:09:21;;;;;;;13.17;11.97;;;;;;;17.45;77.21;93502.75;5083397;28;20236;-70
2022/09/06 07:11:47;;;;;;;12.80;11.60;;;;;;;17.34;79.66;93495.31;5091668;28;20201;-72
2022/09/06 07:14:14;;;;;;;12.47;11.30;;;;;;;17.32;79.51;93498.25;5092136;28;20224;-71
2022/09/06 07:16:39;;;;;;;13.63;12.43;;;;;;;17.39;78.82;93495.19;5089060;28;20183;-71
2022/09/06 07:19:05;;;;;;;15.03;12.17;;;;;;;17.39;80.34;93501.28;5092123;28;20232;-71
2022/09/06 07:21:30;;;;;;;12.77;11.47;;;;;;;17.65;77.95;93483.00;5084674;28;20213;-73
2022/09/06 07:23:55;;;;;;;13.20;11.90;;;;;;;17.96;75.72;93488.34;5089480;28;20228;-71
2022/09/06 07:26:24;;;;;;;12.63;11.63;;;;;;;18.20;75.57;93512.56;5089515;28;20186;-70
2022/09/06 07:29:01;;;;;;;13.97;12.33;;;;;;;18.35;75.79;93512.97;5085261;28;20290;-71
2022/09/06 07:31:28;;;;;;;13.53;12.40;;;;;;;18.22;76.05;93508.56;5081463;28;20189;-71
2022/09/06 07:33:53;;;;;;;14.23;12.70;;;;;;;18.21;77.17;93511.50;5086722;28;20219;-72
2022/09/06 07:36:19;;;;;;;13.80;12.53;;;;;;;18.19;76.06;93521.59;5090549;28;20193;-71
2022/09/06 07:38:49;;;;;;;14.00;12.77;;;;;;;18.15;76.65;93507.44;5087402;28;20211;-70
2022/09/06 07:41:16;;;;;;;13.63;12.53;;;;;;;18.46;74.48;93508.25;5090695;28;20210;-70
2022/09/06 07:43:41;;;;;;;14.03;12.63;;;;;;;18.31;75.63;93519.97;5090389;28;20185;-71
2022/09/06 07:46:09;;;;;;;13.60;12.43;;;;;;;18.01;77.42;93512.78;5090506;28;20181;-73
2022/09/06 07:48:36;;;;;;;14.77;13.43;;;;;;;18.52;74.24;93497.22;5089467;28;20207;-72
2022/09/06 07:51:22;;;;;;;14.87;13.53;;;;;;;18.46;74.80;93502.97;5089916;28;20194;-71
2022/09/06 07:53:54;;;;;;;14.20;12.80;;;;;;;18.64;73.58;93523.88;5089422;28;20206;-72
2022/09/06 07:56:23;;;;;;;13.50;12.30;;;;;;;18.94;72.27;93511.69;5089979;28;20194;-70
2022/09/06 07:58:49;;;;;;;12.97;11.67;;;;;;;19.10;70.72;93510.16;5086741;28;20276;-71
2022/09/06 08:01:23;;;;;;;13.13;11.93;;;;;;;19.10;70.18;93510.94;5090008;28;20209;-71
2022/09/06 08:03:49;;;;;;;14.23;13.10;;;;;;;18.47;72.57;93493.94;5088757;28;20284;-71
2022/09/06 08:06:14;;;;;;;23.93;12.87;;;;;;;19.01;71.52;93504.06;5090173;28;20177;-71
2022/09/06 08:08:40;;;;;;;15.77;12.40;;;;;;;18.96;70.16;93501.56;5089812;28;20186;-71
2022/09/06 08:11:06;;;;;;;13.67;12.43;;;;;;;19.17;70.06;93482.13;5090062;28;20221;-71
2022/09/06 08:13:33;;;;;;;14.07;12.97;;;;;;;19.24;69.55;93499.44;5080604;28;20250;-72
2022/09/06 08:15:59;;;;;;;12.93;11.93;;;;;;;19.09;69.95;93503.31;5097575;28;20190;-73
2022/09/06 08:18:25;;;;;;;12.97;11.83;;;;;;;19.17;70.04;93492.72;5093661;28;20187;-73
2022/09/06 08:20:50;;;;;;;12.90;11.80;;;;;;;19.46;67.24;93505.41;5096308;28;20283;-72
2022/09/06 08:23:15;;;;;;;12.90;11.83;;;;;;;19.15;67.86;93515.31;5079314;28;20216;-72
2022/09/06 08:25:41;;;;;;;12.67;11.67;;;;;;;19.27;68.35;93498.84;5088759;28;20226;-72
2022/09/06 08:28:06;;;;;;;12.77;11.57;;;;;;;19.67;67.25;93505.59;5089169;28;20255;-72
2022/09/06 08:30:32;;;;;;;13.27;11.90;;;;;;;19.26;69.39;93507.84;5089144;28;20222;-72
2022/09/06 08:32:57;;;;;;;12.77;11.80;;;;;;;19.23;68.84;93511.91;5091096;28;20817;-71
2022/09/06 08:35:23;;;;;;;12.33;11.43;;;;;;;18.93;69.50;93505.59;5096149;28;20239;-71
2022/09/06 08:37:48;;;;;;;13.10;11.80;;;;;;;19.67;66.39;93498.41;5082295;28;20198;-71
2022/09/06 08:40:20;;;;;;;12.97;11.67;;;;;;;19.89;65.39;93500.88;5088792;28;20231;-75
2022/09/06 08:42:46;;;;;;;12.10;11.20;;;;;;;19.83;66.68;93491.53;5088056;28;20274;-70
2022/09/06 08:45:18;;;;;;;12.17;11.27;;;;;;;20.09;64.90;93492.28;5092446;28;20215;-70
2022/09/06 08:47:43;;;;;;;11.67;10.77;;;;;;;19.62;67.65;93472.06;5086154;28;20204;-69
2022/09/06 08:50:09;;;;;;;12.67;11.33;;;;;;;20.14;64.17;93488.72;5088473;28;20228;-70
2022/09/06 08:53:04;;;;;;;11.77;10.83;;;;;;;20.13;64.15;93456.13;5081133;28;20193;-69
2022/09/06 08:55:39;;;;;;;10.57;9.87;;;;;;;20.04;64.97;93487.16;5086442;28;20310;-71
2022/09/06 08:58:29;;;;;;;11.10;10.37;;;;;;;20.08;63.48;93484.63;5089044;28;21038;-71
2022/09/06 09:01:21;;;;;;;11.23;10.53;;;;;;;20.21;64.39;93473.88;5084124;28;20219;-71
2022/09/06 09:03:47;;;;;;;11.43;10.17;;;;;;;20.40;62.17;93476.16;5083314;28;20204;-69
2022/09/06 09:06:13;;;;;;;10.50;9.77;;;;;;;20.51;60.93;93474.72;5086894;28;20182;-71
2022/09/06 09:09:01;;;;;;;10.73;9.90;;;;;;;20.44;62.20;93475.22;5088312;28;20283;-69
2022/09/06 09:11:27;;;;;;;10.07;9.47;;;;;;;20.79;59.05;93473.19;5087914;28;20756;-69
2022/09/06 09:14:03;;;;;;;11.20;10.40;;;;;;;20.61;61.17;93456.56;5076601;28;20322;-69
2022/09/06 09:16:29;;;;;;;11.63;10.80;;;;;;;20.86;60.92;93451.47;5081758;28;20179;-69
2022/09/06 09:18:58;;;;;;;10.93;10.00;;;;;;;21.09;59.85;93455.41;5085430;28;20270;-68
2022/09/06 09:21:25;;;;;;;10.27;9.57;;;;;;;21.20;58.74;93453.94;5085445;28;20235;-67
2022/09/06 09:23:57;;;;;;;10.65;9.75;;;;;;;21.10;57.63;93422.44;5088449;28;20299;-69
2022/09/06 09:26:25;;;;;;;10.40;9.70;;;;;;;21.25;56.85;93454.50;5088434;28;20230;-69
2022/09/06 09:29:11;;;;;;;14.02;13.00;;;;;;;21.17;57.88;93442.06;5080790;28;20291;-68
2022/09/06 09:31:51;;;;;;;12.02;11.13;;;;;;;21.16;59.04;93448.47;5089426;28;20258;-69
2022/09/06 09:34:38;;;;;;;11.43;10.65;;;;;;;21.06;59.06;93442.78;5082025;28;20259;-69
2022/09/06 09:37:15;;;;;;;11.32;10.43;;;;;;;21.19;60.64;93441.72;5085151;28;20199;-68
2022/09/06 09:39:40;;;;;;;11.40;10.60;;;;;;;21.37;56.71;93443.94;5085572;28;20233;-70
2022/09/06 09:42:07;;;;;;;11.30;10.50;;;;;;;21.30;55.21;93434.94;5090117;28;20208;-70
2022/09/06 09:44:34;;;;;;;11.20;10.50;;;;;;;21.03;58.80;93443.44;5092850;28;20222;-70
2022/09/06 09:47:08;;;;;;;11.73;10.82;;;;;;;21.15;57.54;93436.31;5087342;28;20192;-69
2022/09/06 09:49:34;;;;;;;11.32;10.52;;;;;;;20.91;57.33;93427.38;5081526;28;20228;-68
2022/09/06 09:52:11;;;;;;;11.57;10.77;;;;;;;20.72;55.99;93427.03;5087298;28;20218;-72
2022/09/06 09:54:39;;;;;;;11.52;10.75;;;;;;;21.20;56.01;93433.44;5081884;28;20218;-74
2022/09/06 09:57:12;;;;;;;11.10;10.40;;;;;;;21.31;55.43;93425.88;5091587;28;20251;-72
2022/09/06 09:59:57;;;;;;;10.52;9.82;;;;;;;21.62;55.00;93426.25;5089591;28;20251;-72
2022/09/06 10:02:30;;;;;;;9.85;9.10;;;;;;;21.65;53.30;93430.91;5091283;28;20228;-71
2022/09/06 10:05:01;;;;;;;11.23;10.30;;;;;;;20.82;54.26;93424.78;5086004;28;20319;-72
2022/09/06 10:07:27;;;;;;;13.82;12.27;;;;;;;21.10;55.57;93415.25;5079878;28;20193;-72
2022/09/06 10:10:06;;;;;;;12.48;11.27;;;;;;;21.49;54.26;93411.34;5085275;28;20232;-72
2022/09/06 10:12:34;;;;;;;11.05;10.27;;;;;;;21.50;54.35;93418.22;5091717;28;20251;-73
2022/09/06 10:15:00;;;;;;;11.85;10.88;;;;;;;21.42;55.11;93416.41;5088699;28;20281;-72
2022/09/06 10:17:25;;;;;;;11.07;10.27;;;;;;;21.40;56.13;93413.31;5082289;28;20195;-72
2022/09/06 10:19:51;;;;;;;12.02;10.98;;;;;;;21.58;52.76;93409.38;5089736;28;21181;-71
2022/09/06 10:22:58;;;;;;;11.20;10.40;;;;;;;21.76;52.66;93421.47;5091400;28;20548;-72
2022/09/06 10:25:37;;;;;;;11.75;10.60;;;;;;;21.96;52.01;93415.31;5049485;28;20231;-72
2022/09/06 10:28:29;;;;;;;10.38;9.48;;;;;;;21.94;52.07;93417.53;5086794;28;20208;-72
2022/09/06 10:31:01;;;;;;;10.75;9.75;;;;;;;21.84;51.52;93409.94;5085497;28;20231;-73
2022/09/06 10:33:41;;;;;;;9.98;9.27;;;;;;;22.06;48.87;93412.22;5087285;28;20206;-72
2022/09/06 10:36:07;;;;;;;9.30;8.70;;;;;;;21.97;46.34;93408.88;5082473;28;20241;-72
2022/09/06 10:38:38;;;;;;;9.63;9.02;;;;;;;21.90;48.84;93398.78;5088479;28;20198;-72
2022/09/06 10:41:04;;;;;;;9.38;8.77;;;;;;;21.97;47.88;93408.88;5085065;28;20227;-71
2022/09/06 10:43:40;;;;;;;9.80;9.20;;;;;;;22.30;47.06;93401.63;5088068;28;20191;-72
2022/09/06 10:46:14;;;;;;;8.60;8.10;;;;;;;21.83;47.57;93400.44;5088749;28;20167;-70
2022/09/06 10:48:43;;;;;;;9.88;9.25;;;;;;;21.77;48.70;93393.75;5082753;28;20206;-70
2022/09/06 10:51:19;;;;;;;9.68;9.00;;;;;;;21.81;47.08;93402.63;5090269;28;20248;-70
2022/09/06 10:53:49;;;;;;;9.98;9.20;;;;;;;21.71;48.54;93397.72;5092004;28;20179;-75
2022/09/06 10:56:40;;;;;;;8.77;8.27;;;;;;;21.46;49.80;93396.84;5092796;28;20166;-74
2022/09/06 10:59:27;;;;;;;9.38;8.77;;;;;;;21.06;49.31;93389.66;5054774;28;20245;-72
2022/09/06 11:02:11;;;;;;;8.77;8.27;;;;;;;20.86;50.24;93385.84;5090411;28;20203;-73
2022/09/06 11:04:44;;;;;;;8.55;8.05;;;;;;;20.74;48.44;93391.09;5089744;28;20221;-72
2022/09/06 11:07:33;;;;;;;9.52;8.93;;;;;;;20.58;48.97;93393.53;5089010;28;20206;-72
2022/09/06 11:10:29;;;;;;;9.73;9.13;;;;;;;20.46;48.88;93385.47;5088744;28;20255;-71
2022/09/06 11:13:12;;;;;;;8.50;8.00;;;;;;;20.45;49.13;93375.94;5089478;28;20200;-69
2022/09/06 11:15:41;;;;;;;9.40;8.80;;;;;;;20.51;51.15;93381.84;5088978;28;20292;-70
2022/09/06 11:18:21;;;;;;;9.85;9.23;;;;;;;20.59;51.54;93378.38;5078273;28;20178;-71
2022/09/06 11:21:19;;;;;;;9.77;9.18;;;;;;;20.14;52.51;93327.72;5083164;28;20943;-73
2022/09/06 11:24:10;;;;;;;9.98;9.35;;;;;;;20.39;54.26;93377.22;5080849;28;20196;-73
2022/09/06 11:26:44;;;;;;;10.15;9.43;;;;;;;20.38;54.79;93373.03;5082386;28;20704;-76
2022/09/06 11:29:16;;;;;;;9.63;9.02;;;;;;;20.43;55.88;93366.75;5086787;28;20253;-71
2022/09/06 11:32:01;;;;;;;10.27;9.52;;;;;;;20.90;55.95;93375.38;5071170;28;20810;-71